Coningsby, United Kingdom
Current Conditions -  °F | °C
As of 12:50 AM on Thursday 27 Nov 2014 (Local Time) from EGXC Reporting Station
Moderate Fog Moderate Fog  
Wind Chill: 46°   Ceiling: 200
Heat Index: 46°   Visibility: 0.12mi
Dew Point: 46°   Wind: 1mph
Humidity: 100%   Direction: 110°ESE
Pressure: 29.71"   Gusts: NA
Location:  53.11°N, 0.18°W
Report Text: EGXC 270050Z 11001KT 0200 FG OVC002 08/08 Q1006 RED
Loading
Personal Weather Stations






























Interactive Weather Map New forecast layout! Learn more

10-Day Weather Forecast

Advertisements
Track Severe Weather on mobile